Time;durP1;ratioP1;P1;durP2;ratioP2;P2;SDS_P1;SDS_P2;PMS_P1;PMS_P2;Temp;Humidity;BMP_temperature;BMP_pressure;BME280_temperature;BME280_humidity;BME280_pressure;Samples;Min_cycle;Max_cycle;Signal;HPM_P1;HPM_P2
2023/03/21 00:01:44;;;;;;;2.67;2.00;;;;;;;;;;5051100;28;20029;-80
2023/03/21 00:04:12;;;;;;;2.20;2.00;;;;;;;;;;5055434;28;20060;-81
2023/03/21 00:06:43;;;;;;;5.05;2.58;;;;;;;;;;5048049;28;20065;-82
2023/03/21 00:09:12;;;;;;;2.78;1.98;;;;;;;;;;5058573;28;20228;-85
2023/03/21 00:11:38;;;;;;;2.65;1.90;;;;;;;;;;5057587;28;20022;-82
2023/03/21 00:14:04;;;;;;;4.55;2.92;;;;;;;;;;5055340;28;20025;-85
2023/03/21 00:16:34;;;;;;;3.15;1.80;;;;;;;;;;5053330;28;20033;-82
2023/03/21 00:19:06;;;;;;;1.80;1.70;;;;;;;;;;5047637;28;20056;-85
2023/03/21 00:21:41;;;;;;;4.50;2.10;;;;;;;;;;5042724;28;20017;-83
2023/03/21 00:24:08;;;;;;;1.70;1.60;;;;;;;;;;5048635;28;20001;-82
2023/03/21 00:26:41;;;;;;;2.47;2.28;;;;;;;;;;5035227;28;20037;-81
2023/03/21 00:29:08;;;;;;;3.03;1.70;;;;;;;;;;5036653;28;20028;-80
2023/03/21 00:31:34;;;;;;;1.95;1.75;;;;;;;;;;5041820;28;20022;-81
2023/03/21 00:34:00;;;;;;;3.38;1.80;;;;;;;;;;5060845;28;20056;-83
2023/03/21 00:36:29;;;;;;;4.10;2.15;;;;;;;;;;5056989;28;20021;-82
2023/03/21 00:39:03;;;;;;;3.97;2.20;;;;;;;;;;5049402;28;20060;-83
2023/03/21 00:41:31;;;;;;;5.43;2.10;;;;;;;;;;5050357;28;20032;-84
2023/03/21 00:44:06;;;;;;;4.07;1.98;;;;;;;;;;5049098;28;20021;-82
2023/03/21 00:46:34;;;;;;;3.58;1.80;;;;;;;;;;5048501;28;20021;-81
2023/03/21 00:49:03;;;;;;;3.67;2.25;;;;;;;;;;5038104;28;20185;-80
2023/03/21 00:51:29;;;;;;;2.47;1.80;;;;;;;;;;5048159;28;20059;-84
2023/03/21 00:53:56;;;;;;;3.42;1.88;;;;;;;;;;5034915;28;20029;-81
2023/03/21 00:56:24;;;;;;;3.35;1.77;;;;;;;;;;5048876;28;20053;-81
2023/03/21 00:58:59;;;;;;;3.17;1.95;;;;;;;;;;5044637;28;20089;-81
2023/03/21 01:01:30;;;;;;;1.80;1.63;;;;;;;;;;5034820;28;20064;-81
2023/03/21 01:04:03;;;;;;;4.07;1.92;;;;;;;;;;5040041;28;20032;-80
2023/03/21 01:06:30;;;;;;;6.13;2.47;;;;;;;;;;5050496;28;20032;-83
2023/03/21 01:08:59;;;;;;;3.40;1.98;;;;;;;;;;5043747;28;20390;-82
2023/03/21 01:11:26;;;;;;;6.95;1.98;;;;;;;;;;5050856;28;20036;-83
2023/03/21 01:13:52;;;;;;;6.72;2.00;;;;;;;;;;5049969;28;20009;-83
2023/03/21 01:16:19;;;;;;;3.17;2.03;;;;;;;;;;5042115;28;20045;-80
2023/03/21 01:18:50;;;;;;;3.45;2.20;;;;;;;;;;5044491;28;20095;-80
2023/03/21 01:21:25;;;;;;;3.30;2.30;;;;;;;;;;5035922;28;20040;-81
2023/03/21 01:23:54;;;;;;;3.80;1.90;;;;;;;;;;5043708;28;20090;-81
2023/03/21 01:26:20;;;;;;;7.97;2.10;;;;;;;;;;5040095;28;20396;-81
2023/03/21 01:28:47;;;;;;;5.72;2.25;;;;;;;;;;5045657;28;20026;-80
2023/03/21 01:31:14;;;;;;;5.75;2.42;;;;;;;;;;5034948;28;20037;-79
2023/03/21 01:33:43;;;;;;;6.70;2.42;;;;;;;;;;5038090;28;20025;-80
2023/03/21 01:36:13;;;;;;;5.00;2.10;;;;;;;;;;5035454;28;20033;-80
2023/03/21 01:38:49;;;;;;;10.02;2.40;;;;;;;;;;5040935;28;20054;-82
2023/03/21 01:41:25;;;;;;;4.28;2.20;;;;;;;;;;5032668;28;20025;-79
2023/03/21 01:43:51;;;;;;;6.00;2.25;;;;;;;;;;5038523;28;20052;-82
2023/03/21 01:46:36;;;;;;;6.35;2.67;;;;;;;;;;5037613;28;20032;-82
2023/03/21 01:49:12;;;;;;;9.75;3.22;;;;;;;;;;5037594;28;20085;-81
2023/03/21 01:52:07;;;;;;;5.68;3.28;;;;;;;;;;5034031;28;20052;-81
2023/03/21 01:54:38;;;;;;;8.27;3.00;;;;;;;;;;5037041;28;20060;-81
2023/03/21 01:57:08;;;;;;;6.38;3.33;;;;;;;;;;5037349;28;20026;-82
2023/03/21 01:59:40;;;;;;;8.18;3.33;;;;;;;;;;5032541;28;20037;-82
2023/03/21 02:02:13;;;;;;;7.57;2.83;;;;;;;;;;5031102;28;20216;-82
2023/03/21 02:04:49;;;;;;;11.23;2.80;;;;;;;;;;5035801;28;20033;-82
2023/03/21 02:07:17;;;;;;;11.68;3.10;;;;;;;;;;5046233;28;20028;-82
2023/03/21 02:09:47;;;;;;;5.47;2.35;;;;;;;;;;5038684;28;20029;-81
2023/03/21 02:12:15;;;;;;;15.15;3.05;;;;;;;;;;5039054;28;20022;-80
2023/03/21 02:14:42;;;;;;;4.88;2.53;;;;;;;;;;5038996;28;20026;-81
2023/03/21 02:17:08;;;;;;;10.55;2.67;;;;;;;;;;5039470;28;20036;-83
2023/03/21 02:19:47;;;;;;;3.80;2.42;;;;;;;;;;5037434;28;20044;-81
2023/03/21 02:22:13;;;;;;;9.25;2.90;;;;;;;;;;5038518;28;20040;-81
2023/03/21 02:24:57;;;;;;;6.00;2.78;;;;;;;;;;5046822;28;20053;-82
2023/03/21 02:27:24;;;;;;;10.45;2.90;;;;;;;;;;5038114;28;20375;-82
2023/03/21 02:30:00;;;;;;;9.85;2.72;;;;;;;;;;5043264;28;20029;-81
2023/03/21 02:32:29;;;;;;;3.72;2.70;;;;;;;;;;5035247;28;20021;-81
2023/03/21 02:35:14;;;;;;;5.35;2.60;;;;;;;;;;5044592;28;20030;-81
2023/03/21 02:37:49;;;;;;;6.20;2.58;;;;;;;;;;5032835;28;20053;-81
2023/03/21 02:40:22;;;;;;;8.57;2.92;;;;;;;;;;5035852;28;20119;-82
2023/03/21 02:42:53;;;;;;;15.35;3.00;;;;;;;;;;5034964;28;20018;-80
2023/03/21 02:45:20;;;;;;;7.35;2.67;;;;;;;;;;5041922;28;20040;-81
2023/03/21 02:47:51;;;;;;;10.65;3.40;;;;;;;;;;5034397;28;20029;-81
2023/03/21 02:50:23;;;;;;;8.93;4.05;;;;;;;;;;5035450;28;20025;-81
2023/03/21 02:52:51;;;;;;;11.18;3.05;;;;;;;;;;5038953;28;20022;-81
2023/03/21 02:55:23;;;;;;;11.57;2.65;;;;;;;;;;5029190;28;20033;-80
2023/03/21 02:57:50;;;;;;;10.98;2.47;;;;;;;;;;5035624;28;20443;-82
2023/03/21 03:00:18;;;;;;;8.50;2.40;;;;;;;;;;5035157;28;20025;-82
2023/03/21 03:02:44;;;;;;;8.57;2.17;;;;;;;;;;5036427;28;20029;-81
2023/03/21 03:05:15;;;;;;;5.60;2.10;;;;;;;;;;5031284;28;20036;-81
2023/03/21 03:07:50;;;;;;;4.10;1.92;;;;;;;;;;5036302;28;20018;-82
2023/03/21 03:10:35;;;;;;;7.28;2.10;;;;;;;;;;5039224;28;20075;-81
2023/03/21 03:13:10;;;;;;;5.77;2.17;;;;;;;;;;5035472;28;20029;-84
2023/03/21 03:15:50;;;;;;;4.80;2.35;;;;;;;;;;5034102;28;20017;-81
2023/03/21 03:18:27;;;;;;;3.85;2.45;;;;;;;;;;5025528;28;20051;-81
2023/03/21 03:21:14;;;;;;;6.90;2.25;;;;;;;;;;5039573;28;20110;-83
2023/03/21 03:23:52;;;;;;;5.90;2.90;;;;;;;;;;5037868;28;20030;-81
2023/03/21 03:26:28;;;;;;;7.82;2.40;;;;;;;;;;5041371;28;20036;-81
2023/03/21 03:28:55;;;;;;;6.22;2.50;;;;;;;;;;5038465;28;20028;-83
2023/03/21 03:31:26;;;;;;;6.20;2.40;;;;;;;;;;5035552;28;20048;-80
2023/03/21 03:33:55;;;;;;;10.40;2.92;;;;;;;;;;5032418;28;20029;-80
2023/03/21 03:36:23;;;;;;;4.75;2.58;;;;;;;;;;5030262;28;20022;-81
2023/03/21 03:38:50;;;;;;;6.05;2.22;;;;;;;;;;5034403;28;20055;-80
2023/03/21 03:41:19;;;;;;;5.78;4.05;;;;;;;;;;5036289;28;20407;-81
2023/03/21 03:43:51;;;;;;;7.50;1.98;;;;;;;;;;5045207;28;20038;-81
2023/03/21 03:46:37;;;;;;;5.57;2.40;;;;;;;;;;5040760;28;20116;-81
2023/03/21 03:49:29;;;;;;;7.13;2.50;;;;;;;;;;5044026;28;20128;-82
2023/03/21 03:51:59;;;;;;;8.20;2.40;;;;;;;;;;5033492;28;20038;-83
2023/03/21 03:54:35;;;;;;;4.70;2.28;;;;;;;;;;5030122;28;20026;-81
2023/03/21 03:57:03;;;;;;;5.82;2.03;;;;;;;;;;5030453;28;20025;-81
2023/03/21 03:59:29;;;;;;;8.50;2.45;;;;;;;;;;5027656;28;20013;-81
2023/03/21 04:01:55;;;;;;;5.13;2.10;;;;;;;;;;5031566;28;20033;-80
2023/03/21 04:04:27;;;;;;;7.60;2.20;;;;;;;;;;5039680;28;20105;-81
2023/03/21 04:06:53;;;;;;;7.20;2.10;;;;;;;;;;5047253;28;20036;-81
2023/03/21 04:09:19;;;;;;;5.22;1.73;;;;;;;;;;5040062;28;20539;-81
2023/03/21 04:11:45;;;;;;;5.53;2.00;;;;;;;;;;5030935;28;20033;-82
2023/03/21 04:14:11;;;;;;;5.70;1.95;;;;;;;;;;5032658;28;20029;-81
2023/03/21 04:16:38;;;;;;;6.43;2.47;;;;;;;;;;5035578;28;20057;-81
2023/03/21 04:19:04;;;;;;;7.85;2.22;;;;;;;;;;5034065;28;20117;-81
2023/03/21 04:21:30;;;;;;;9.25;2.30;;;;;;;;;;5035219;28;20053;-81
2023/03/21 04:23:56;;;;;;;6.22;2.70;;;;;;;;;;5050641;28;20025;-81
2023/03/21 04:26:23;;;;;;;3.60;2.00;;;;;;;;;;5034636;28;20029;-81
2023/03/21 04:28:50;;;;;;;3.83;2.28;;;;;;;;;;5034584;28;20071;-80
2023/03/21 04:31:17;;;;;;;4.80;1.90;;;;;;;;;;5041041;28;20036;-81
2023/03/21 04:33:43;;;;;;;5.85;2.10;;;;;;;;;;5038541;28;20025;-81
2023/03/21 04:36:17;;;;;;;5.38;2.17;;;;;;;;;;5035139;28;20028;-81
2023/03/21 04:38:47;;;;;;;3.80;2.03;;;;;;;;;;5042784;28;20450;-82
2023/03/21 04:41:13;;;;;;;1.63;1.52;;;;;;;;;;5038880;28;20022;-81
2023/03/21 04:43:39;;;;;;;5.60;2.95;;;;;;;;;;5045432;28;20025;-82
2023/03/21 04:46:06;;;;;;;7.43;1.83;;;;;;;;;;5038589;28;20060;-81
2023/03/21 04:48:32;;;;;;;3.95;1.63;;;;;;;;;;5037112;28;20040;-81
2023/03/21 04:50:58;;;;;;;7.40;1.63;;;;;;;;;;5041938;28;20041;-81
2023/03/21 04:53:24;;;;;;;4.18;1.60;;;;;;;;;;5040990;28;20057;-81
2023/03/21 04:55:50;;;;;;;4.35;2.67;;;;;;;;;;5044541;28;20432;-82
2023/03/21 04:58:19;;;;;;;5.25;1.92;;;;;;;;;;5042083;28;20030;-82
2023/03/21 05:00:45;;;;;;;5.90;1.73;;;;;;;;;;5040277;28;20045;-81
2023/03/21 05:03:18;;;;;;;2.92;1.60;;;;;;;;;;5040278;28;20056;-82
2023/03/21 05:05:45;;;;;;;2.45;2.00;;;;;;;;;;5039332;28;20125;-82
2023/03/21 05:08:12;;;;;;;2.90;1.73;;;;;;;;;;5035771;28;20084;-82
2023/03/21 05:10:38;;;;;;;5.00;2.45;;;;;;;;;;5044543;28;20029;-81
2023/03/21 05:13:04;;;;;;;6.20;2.33;;;;;;;;;;5036207;28;20038;-82
2023/03/21 05:15:30;;;;;;;3.17;1.67;;;;;;;;;;5044752;28;20018;-81
2023/03/21 05:18:10;;;;;;;3.30;1.90;;;;;;;;;;5052949;28;20029;-82
2023/03/21 05:20:36;;;;;;;2.78;1.58;;;;;;;;;;5046567;28;20033;-83
2023/03/21 05:23:03;;;;;;;6.30;2.20;;;;;;;;;;5041936;28;20090;-83
2023/03/21 05:25:36;;;;;;;3.88;2.33;;;;;;;;;;5045456;28;20491;-82
2023/03/21 05:28:03;;;;;;;4.30;2.00;;;;;;;;;;5033768;28;20049;-82
2023/03/21 05:30:30;;;;;;;7.57;2.30;;;;;;;;;;5040481;28;20498;-82
2023/03/21 05:32:56;;;;;;;5.95;2.00;;;;;;;;;;5031518;28;20022;-82
2023/03/21 05:35:22;;;;;;;6.43;2.15;;;;;;;;;;5038513;28;20022;-81
2023/03/21 05:37:48;;;;;;;5.10;1.90;;;;;;;;;;5041432;28;20499;-82
2023/03/21 05:40:18;;;;;;;4.40;1.90;;;;;;;;;;5033352;28;20084;-80
2023/03/21 05:42:45;;;;;;;3.97;2.10;;;;;;;;;;5039368;28;20051;-81
2023/03/21 05:45:12;;;;;;;7.45;2.08;;;;;;;;;;5041602;28;20027;-82
2023/03/21 05:47:38;;;;;;;5.75;2.50;;;;;;;;;;5041126;28;20037;-81
2023/03/21 05:50:05;;;;;;;3.78;1.90;;;;;;;;;;5029509;28;20018;-81
2023/03/21 05:52:32;;;;;;;6.43;2.00;;;;;;;;;;5033494;28;20013;-82
2023/03/21 05:54:58;;;;;;;4.15;2.20;;;;;;;;;;5034791;28;20022;-81
2023/03/21 05:57:26;;;;;;;3.85;1.98;;;;;;;;;;5041581;28;20034;-82
2023/03/21 05:59:52;;;;;;;3.60;1.85;;;;;;;;;;5039811;28;20053;-84
2023/03/21 06:02:18;;;;;;;4.95;1.90;;;;;;;;;;5033718;28;20049;-82
2023/03/21 06:04:45;;;;;;;6.10;2.00;;;;;;;;;;5038897;28;20049;-81
2023/03/21 06:07:11;;;;;;;3.15;2.15;;;;;;;;;;5048783;28;20017;-83
2023/03/21 06:09:37;;;;;;;6.30;2.28;;;;;;;;;;5034941;28;20026;-81
2023/03/21 06:12:03;;;;;;;6.80;2.33;;;;;;;;;;5036561;28;20034;-83
2023/03/21 06:14:30;;;;;;;2.78;1.80;;;;;;;;;;5053693;28;20026;-85
2023/03/21 06:16:56;;;;;;;5.63;2.42;;;;;;;;;;5052283;28;20056;-84
2023/03/21 06:19:22;;;;;;;4.68;2.15;;;;;;;;;;5054633;28;20201;-84
2023/03/21 06:21:48;;;;;;;3.13;1.80;;;;;;;;;;5047933;28;20030;-85
2023/03/21 06:24:16;;;;;;;2.03;1.70;;;;;;;;;;5045550;28;20014;-85
2023/03/21 06:26:42;;;;;;;3.20;2.30;;;;;;;;;;5055505;28;20037;-87
2023/03/21 06:29:09;;;;;;;1.92;1.60;;;;;;;;;;5061257;28;20009;-85
2023/03/21 06:31:36;;;;;;;5.15;1.90;;;;;;;;;;5383404;23;20034;-89
2023/03/21 06:34:03;;;;;;;3.92;1.70;;;;;;;;;;5035751;28;20044;-86
2023/03/21 06:36:29;;;;;;;6.63;2.50;;;;;;;;;;5035181;28;20090;-85
2023/03/21 06:38:56;;;;;;;3.72;2.75;;;;;;;;;;5033410;28;20057;-84
2023/03/21 06:41:22;;;;;;;2.33;1.88;;;;;;;;;;5037288;28;20042;-84
2023/03/21 06:43:57;;;;;;;4.40;1.85;;;;;;;;;;5033442;28;20030;-83
2023/03/21 06:46:24;;;;;;;4.28;1.92;;;;;;;;;;5028896;28;20033;-84
2023/03/21 06:48:59;;;;;;;4.38;1.92;;;;;;;;;;5029441;28;20030;-82
2023/03/21 06:51:27;;;;;;;7.22;2.20;;;;;;;;;;5027561;28;20082;-82
2023/03/21 06:53:56;;;;;;;5.10;1.80;;;;;;;;;;5029490;28;20046;-83
2023/03/21 06:56:29;;;;;;;4.93;1.92;;;;;;;;;;5022402;28;20038;-84
2023/03/21 06:58:58;;;;;;;2.95;1.90;;;;;;;;;;5026827;28;20048;-83
2023/03/21 07:01:26;;;;;;;1.90;1.70;;;;;;;;;;5024002;28;20045;-82
2023/03/21 07:03:55;;;;;;;2.95;1.95;;;;;;;;;;5021768;28;20006;-83
2023/03/21 07:06:21;;;;;;;2.92;1.98;;;;;;;;;;5028499;28;20045;-81
2023/03/21 07:08:50;;;;;;;4.50;1.98;;;;;;;;;;5021159;28;20022;-83
2023/03/21 07:11:18;;;;;;;4.32;1.95;;;;;;;;;;5030412;28;20026;-83
2023/03/21 07:13:44;;;;;;;3.30;1.95;;;;;;;;;;5027509;28;20018;-84
2023/03/21 07:16:11;;;;;;;2.47;1.88;;;;;;;;;;5023333;28;20030;-82
2023/03/21 07:18:40;;;;;;;5.78;1.83;;;;;;;;;;5036398;28;20057;-85
2023/03/21 07:21:15;;;;;;;1.70;1.52;;;;;;;;;;5037196;28;20014;-85
2023/03/21 07:23:44;;;;;;;;;;;;;;;;;;5029738;28;20045;-85
2023/03/21 07:26:17;;;;;;;3.03;2.28;;;;;;;;;;5034920;28;19916;-83
2023/03/21 07:28:46;;;;;;;1.75;1.65;;;;;;;;;;5022187;28;20023;-86
2023/03/21 07:31:24;;;;;;;4.20;1.88;;;;;;;;;;5034613;28;20053;-83
2023/03/21 07:33:51;;;;;;;2.85;1.75;;;;;;;;;;5032804;28;20101;-83
2023/03/21 07:36:20;;;;;;;2.20;1.75;;;;;;;;;;5024330;28;20057;-86
2023/03/21 07:38:51;;;;;;;2.67;1.55;;;;;;;;;;5031518;28;20037;-82
2023/03/21 07:41:27;;;;;;;4.25;1.60;;;;;;;;;;5028042;28;20033;-82
2023/03/21 07:43:56;;;;;;;2.17;1.65;;;;;;;;;;5029416;28;20026;-85
2023/03/21 07:46:25;;;;;;;1.60;1.50;;;;;;;;;;5030868;28;20018;-82
2023/03/21 07:48:59;;;;;;;1.50;1.40;;;;;;;;;;5020555;28;20033;-85
2023/03/21 07:51:28;;;;;;;2.03;1.58;;;;;;;;;;5029371;28;20037;-82
2023/03/21 07:53:54;;;;;;;2.50;1.50;;;;;;;;;;5032640;28;20118;-86
2023/03/21 07:56:20;;;;;;;2.17;1.58;;;;;;;;;;5038659;28;20006;-85
2023/03/21 08:01:23;;;;;;;3.08;1.73;;;;;;;;;;5446269;22;20037;-85
2023/03/21 08:03:50;;;;;;;3.15;1.60;;;;;;;;;;5038094;28;20022;-84
2023/03/21 08:06:20;;;;;;;2.13;1.52;;;;;;;;;;5062579;28;20010;-83
2023/03/21 08:13:59;;;;;;;1.88;1.70;;;;;;;;;;5591226;23;20065;-84
2023/03/21 08:16:59;;;;;;;3.30;1.45;;;;;;;;;;5015434;28;20030;-83
2023/03/21 08:25:32;;;;;;;2.22;1.55;;;;;;;;;;5853178;23;20045;-85
2023/03/21 08:28:04;;;;;;;5.28;1.80;;;;;;;;;;5059540;28;20086;-83
2023/03/21 08:33:08;;;;;;;2.42;2.17;;;;;;;;;;5844932;22;20037;-86
2023/03/21 08:35:37;;;;;;;2.53;2.00;;;;;;;;;;5058681;28;20014;-85
2023/03/21 08:38:07;;;;;;;5.82;2.85;;;;;;;;;;5048923;28;20009;-84
2023/03/21 08:40:40;;;;;;;2.28;1.80;;;;;;;;;;5055442;28;20045;-83
2023/03/21 08:43:06;;;;;;;4.80;1.73;;;;;;;;;;5050750;28;20053;-81
2023/03/21 08:45:32;;;;;;;8.27;2.10;;;;;;;;;;5042547;28;20027;-79
2023/03/21 08:47:58;;;;;;;4.70;1.88;;;;;;;;;;5038146;28;20033;-78
2023/03/21 08:50:28;;;;;;;2.50;1.85;;;;;;;;;;5039206;28;20021;-78
2023/03/21 08:52:54;;;;;;;4.05;1.90;;;;;;;;;;5039086;28;20025;-79
2023/03/21 08:55:22;;;;;;;4.82;1.90;;;;;;;;;;5038366;28;20022;-79
2023/03/21 08:57:49;;;;;;;2.88;1.80;;;;;;;;;;5038885;28;20097;-79
2023/03/21 09:00:16;;;;;;;4.05;1.67;;;;;;;;;;5036077;28;20034;-78
2023/03/21 09:02:54;;;;;;;5.95;2.08;;;;;;;;;;5039007;28;20025;-78
2023/03/21 09:05:21;;;;;;;3.35;1.80;;;;;;;;;;5041991;28;20260;-81
2023/03/21 09:07:48;;;;;;;4.07;1.40;;;;;;;;;;5039118;28;20124;-81
2023/03/21 09:10:22;;;;;;;3.40;1.65;;;;;;;;;;5041979;28;20068;-83
2023/03/21 09:12:50;;;;;;;3.33;1.98;;;;;;;;;;5037939;28;20026;-82
2023/03/21 09:15:17;;;;;;;12.65;2.00;;;;;;;;;;5042156;28;20037;-80
2023/03/21 09:17:47;;;;;;;7.20;2.03;;;;;;;;;;5043060;28;20022;-79
2023/03/21 09:20:50;;;;;;;3.40;1.73;;;;;;;;;;5046157;28;20051;-82
2023/03/21 09:23:17;;;;;;;3.60;1.67;;;;;;;;;;5039599;28;20052;-82
2023/03/21 09:25:45;;;;;;;2.80;1.50;;;;;;;;;;5038900;28;20510;-79
2023/03/21 09:28:12;;;;;;;8.20;1.80;;;;;;;;;;5031424;28;20296;-80
2023/03/21 09:30:38;;;;;;;3.75;1.52;;;;;;;;;;5033204;28;20040;-79
2023/03/21 09:33:12;;;;;;;2.83;1.70;;;;;;;;;;5035848;28;20033;-80
2023/03/21 09:35:38;;;;;;;3.60;1.85;;;;;;;;;;5038009;28;20460;-80
2023/03/21 09:38:04;;;;;;;7.00;2.13;;;;;;;;;;5033951;28;20067;-79
2023/03/21 09:40:34;;;;;;;3.80;2.42;;;;;;;;;;5034409;28;20033;-81
2023/03/21 09:43:06;;;;;;;3.70;1.80;;;;;;;;;;5036948;28;20041;-81
2023/03/21 09:45:36;;;;;;;2.00;1.80;;;;;;;;;;5043126;28;20041;-81
2023/03/21 09:48:06;;;;;;;6.10;2.00;;;;;;;;;;5046712;28;20044;-81
2023/03/21 09:50:36;;;;;;;5.07;1.80;;;;;;;;;;5042059;28;20014;-85
2023/03/21 09:53:05;;;;;;;4.97;2.00;;;;;;;;;;5040606;28;20237;-80
2023/03/21 09:55:33;;;;;;;5.47;2.33;;;;;;;;;;5041957;28;20064;-82
2023/03/21 09:58:04;;;;;;;6.00;1.95;;;;;;;;;;5039488;28;21114;-77
2023/03/21 10:00:34;;;;;;;6.68;2.30;;;;;;;;;;5034608;28;20034;-77
2023/03/21 10:03:05;;;;;;;5.55;3.20;;;;;;;;;;5031764;28;20060;-77
2023/03/21 10:05:33;;;;;;;2.65;1.80;;;;;;;;;;5035451;28;20116;-78
2023/03/21 10:08:08;;;;;;;3.78;1.67;;;;;;;;;;5032768;28;20025;-77
2023/03/21 10:10:36;;;;;;;5.78;1.85;;;;;;;;;;5032078;28;20218;-78
2023/03/21 10:13:02;;;;;;;4.78;1.83;;;;;;;;;;5034326;28;20021;-77
2023/03/21 10:15:28;;;;;;;3.88;1.80;;;;;;;;;;5034086;28;20029;-76
2023/03/21 10:17:58;;;;;;;3.72;2.08;;;;;;;;;;5029253;28;20439;-78
2023/03/21 10:20:29;;;;;;;5.43;1.80;;;;;;;;;;5041734;28;20030;-79
2023/03/21 10:22:58;;;;;;;4.72;1.67;;;;;;;;;;5042408;28;20037;-78
2023/03/21 10:25:27;;;;;;;2.33;1.63;;;;;;;;;;5035111;28;20052;-81
2023/03/21 10:27:54;;;;;;;4.07;2.05;;;;;;;;;;5036935;28;20093;-80
2023/03/21 10:30:41;;;;;;;2.38;1.42;;;;;;;;;;5034269;28;20029;-78
2023/03/21 10:33:09;;;;;;;2.28;1.50;;;;;;;;;;5030389;28;20040;-78
2023/03/21 10:35:36;;;;;;;4.05;1.60;;;;;;;;;;5034121;28;20261;-82
2023/03/21 10:38:02;;;;;;;3.92;1.50;;;;;;;;;;5032046;28;20034;-81
2023/03/21 10:40:29;;;;;;;1.45;1.40;;;;;;;;;;5036324;28;20059;-79
2023/03/21 10:43:15;;;;;;;3.60;1.75;;;;;;;;;;5032262;28;20059;-81
2023/03/21 10:45:41;;;;;;;1.75;1.25;;;;;;;;;;5035467;28;20060;-78
2023/03/21 10:48:07;;;;;;;1.88;1.60;;;;;;;;;;5031501;28;20104;-79
2023/03/21 10:50:35;;;;;;;2.38;1.33;;;;;;;;;;5037450;28;20097;-78
2023/03/21 10:53:02;;;;;;;1.75;1.20;;;;;;;;;;5034849;28;20036;-79
2023/03/21 10:55:33;;;;;;;2.38;2.03;;;;;;;;;;5031996;28;20021;-79
2023/03/21 10:58:07;;;;;;;1.70;1.52;;;;;;;;;;5033506;28;20041;-77
2023/03/21 11:00:42;;;;;;;1.30;1.30;;;;;;;;;;5029922;28;20030;-76
2023/03/21 11:03:20;;;;;;;1.58;1.48;;;;;;;;;;5033538;28;20025;-78
2023/03/21 11:05:46;;;;;;;2.33;1.50;;;;;;;;;;5032908;28;20041;-81
2023/03/21 11:08:14;;;;;;;1.20;1.20;;;;;;;;;;5032652;28;20064;-79
2023/03/21 11:11:01;;;;;;;2.03;1.50;;;;;;;;;;5031725;28;20022;-78
2023/03/21 11:13:33;;;;;;;1.30;1.20;;;;;;;;;;5029896;28;20025;-76
2023/03/21 11:16:05;;;;;;;3.40;1.40;;;;;;;;;;5033009;28;20022;-80
2023/03/21 11:18:32;;;;;;;1.80;1.70;;;;;;;;;;5033504;28;20089;-79
2023/03/21 11:21:02;;;;;;;1.27;1.20;;;;;;;;;;5031196;28;20640;-79
2023/03/21 11:23:32;;;;;;;1.42;1.35;;;;;;;;;;5030721;28;20060;-82
2023/03/21 11:26:02;;;;;;;2.33;1.63;;;;;;;;;;5030907;28;20480;-78
2023/03/21 11:28:39;;;;;;;2.03;1.42;;;;;;;;;;5029338;28;20080;-80
2023/03/21 11:31:07;;;;;;;1.27;1.27;;;;;;;;;;5036662;28;20030;-78
2023/03/21 11:33:44;;;;;;;1.70;1.60;;;;;;;;;;5041325;28;20049;-78
2023/03/21 11:36:20;;;;;;;2.70;1.77;;;;;;;;;;5040160;28;20029;-78
2023/03/21 11:38:51;;;;;;;2.58;1.95;;;;;;;;;;5041106;28;20101;-78
2023/03/21 11:41:43;;;;;;;2.20;1.52;;;;;;;;;;5038741;28;20084;-78
2023/03/21 11:44:24;;;;;;;1.58;1.48;;;;;;;;;;5028776;28;20314;-80
2023/03/21 11:46:50;;;;;;;1.98;1.40;;;;;;;;;;5038941;28;20503;-78
2023/03/21 11:49:16;;;;;;;1.67;1.58;;;;;;;;;;5039075;28;20044;-78
2023/03/21 11:52:03;;;;;;;2.25;1.63;;;;;;;;;;5043595;28;20025;-83
2023/03/21 11:54:48;;;;;;;3.10;1.90;;;;;;;;;;5042204;28;20102;-80
2023/03/21 11:57:37;;;;;;;1.87;1.60;;;;;;;;;;5041510;28;20024;-79
2023/03/21 12:00:12;;;;;;;1.70;1.55;;;;;;;;;;5029065;28;20377;-79
2023/03/21 12:02:50;;;;;;;1.58;1.48;;;;;;;;;;5033543;28;20087;-79
2023/03/21 12:05:23;;;;;;;1.65;1.55;;;;;;;;;;5038592;28;20025;-79
2023/03/21 12:08:08;;;;;;;2.20;1.70;;;;;;;;;;5040807;28;20034;-79
2023/03/21 12:10:40;;;;;;;2.42;1.50;;;;;;;;;;5038062;28;20744;-80
2023/03/21 12:13:09;;;;;;;2.90;1.58;;;;;;;;;;5037232;28;20508;-78
2023/03/21 12:15:36;;;;;;;2.67;1.58;;;;;;;;;;5034637;28;20030;-81
2023/03/21 12:18:11;;;;;;;1.92;1.40;;;;;;;;;;5038857;28;20033;-81
2023/03/21 12:20:37;;;;;;;;;;;;;;;;;;5038706;28;20083;-79
2023/03/21 12:23:12;;;;;;;2.95;1.60;;;;;;;;;;5041547;28;19985;-78
2023/03/21 12:25:42;;;;;;;2.05;1.60;;;;;;;;;;5037462;28;20123;-79
2023/03/21 12:28:33;;;;;;;4.50;1.83;;;;;;;;;;5042663;28;20029;-80
2023/03/21 12:31:08;;;;;;;3.22;1.70;;;;;;;;;;5044108;28;20030;-80
2023/03/21 12:33:44;;;;;;;3.67;1.42;;;;;;;;;;5041518;28;20045;-81
2023/03/21 12:36:21;;;;;;;3.70;1.60;;;;;;;;;;5039958;28;20033;-80
2023/03/21 12:38:47;;;;;;;3.65;1.35;;;;;;;;;;5039369;28;20017;-80
2023/03/21 12:41:22;;;;;;;2.92;1.30;;;;;;;;;;5041187;28;20034;-80
2023/03/21 12:43:52;;;;;;;3.92;1.52;;;;;;;;;;5035606;28;20025;-81
2023/03/21 12:46:26;;;;;;;1.98;1.80;;;;;;;;;;5036476;28;20033;-82
2023/03/21 12:48:55;;;;;;;2.40;1.50;;;;;;;;;;5038043;28;20041;-81
2023/03/21 12:51:34;;;;;;;2.63;1.40;;;;;;;;;;5036799;28;20039;-80
2023/03/21 12:54:09;;;;;;;1.70;1.60;;;;;;;;;;5036937;28;20034;-81
2023/03/21 12:56:47;;;;;;;1.75;1.50;;;;;;;;;;5037820;28;20014;-84
2023/03/21 12:59:19;;;;;;;2.83;1.70;;;;;;;;;;5039547;28;20021;-82
2023/03/21 13:01:47;;;;;;;3.25;1.67;;;;;;;;;;5035902;28;20044;-80
2023/03/21 13:04:19;;;;;;;4.57;1.65;;;;;;;;;;5035226;28;20014;-79
2023/03/21 13:06:46;;;;;;;2.95;1.70;;;;;;;;;;5036379;28;20029;-79
2023/03/21 13:09:17;;;;;;;5.20;1.70;;;;;;;;;;5038338;28;20048;-82
2023/03/21 13:11:43;;;;;;;3.95;1.50;;;;;;;;;;5039259;28;20025;-79
2023/03/21 13:14:36;;;;;;;3.30;1.65;;;;;;;;;;5035026;28;20025;-79
2023/03/21 13:17:06;;;;;;;2.47;1.77;;;;;;;;;;5037488;28;20033;-80
2023/03/21 13:19:39;;;;;;;3.20;1.63;;;;;;;;;;5038003;28;20364;-79
2023/03/21 13:22:08;;;;;;;7.13;3.28;;;;;;;;;;5039314;28;20064;-80
2023/03/21 13:24:42;;;;;;;4.03;1.83;;;;;;;;;;5036587;28;20077;-80
2023/03/21 13:27:26;;;;;;;7.22;2.42;;;;;;;;;;5038964;28;20027;-78
2023/03/21 13:29:53;;;;;;;5.22;2.63;;;;;;;;;;5036887;28;20022;-79
2023/03/21 13:32:27;;;;;;;6.53;2.17;;;;;;;;;;5045090;28;20041;-80
2023/03/21 13:34:55;;;;;;;3.75;2.20;;;;;;;;;;5042413;28;20040;-79
2023/03/21 13:37:21;;;;;;;4.53;1.75;;;;;;;;;;5043180;28;20029;-79
2023/03/21 13:39:52;;;;;;;4.40;2.33;;;;;;;;;;5040425;28;20025;-83
2023/03/21 13:42:22;;;;;;;3.63;2.00;;;;;;;;;;5042055;28;20026;-79
2023/03/21 13:44:50;;;;;;;4.80;2.50;;;;;;;;;;5036967;28;20041;-79
2023/03/21 13:47:53;;;;;;;3.17;2.00;;;;;;;;;;5038571;28;20080;-80
2023/03/21 13:50:30;;;;;;;7.15;2.22;;;;;;;;;;4979462;28;20030;-80
2023/03/21 13:53:11;;;;;;;7.05;3.38;;;;;;;;;;5032309;28;20067;-79
2023/03/21 13:55:43;;;;;;;3.65;1.90;;;;;;;;;;5034522;28;20026;-79
2023/03/21 13:58:22;;;;;;;5.22;3.28;;;;;;;;;;5042368;28;20018;-80
2023/03/21 14:01:22;;;;;;;4.03;2.30;;;;;;;;;;5034906;28;20029;-76
2023/03/21 14:03:48;;;;;;;9.27;2.95;;;;;;;;;;5000724;28;20072;-81
2023/03/21 14:06:16;;;;;;;5.05;2.25;;;;;;;;;;5035785;28;20026;-79
2023/03/21 14:08:44;;;;;;;11.10;3.33;;;;;;;;;;5034451;28;20029;-79
2023/03/21 14:11:13;;;;;;;6.20;2.75;;;;;;;;;;5037607;28;20053;-81
2023/03/21 14:13:41;;;;;;;8.63;3.60;;;;;;;;;;5037757;28;20030;-78
2023/03/21 14:16:12;;;;;;;6.30;2.80;;;;;;;;;;5032982;28;20032;-81
2023/03/21 14:18:44;;;;;;;9.38;2.50;;;;;;;;;;5032849;28;20040;-80
2023/03/21 14:21:19;;;;;;;6.05;2.83;;;;;;;;;;5031810;28;20090;-79
2023/03/21 14:23:45;;;;;;;10.13;2.40;;;;;;;;;;5037092;28;20030;-79
2023/03/21 14:26:11;;;;;;;5.68;2.13;;;;;;;;;;5029748;28;20026;-81
2023/03/21 14:28:39;;;;;;;9.20;2.25;;;;;;;;;;5033993;28;20052;-80
2023/03/21 14:31:05;;;;;;;7.35;2.97;;;;;;;;;;5030177;28;20017;-79
2023/03/21 14:33:31;;;;;;;9.75;3.10;;;;;;;;;;5034579;28;20041;-79
2023/03/21 14:36:07;;;;;;;12.02;3.67;;;;;;;;;;5033206;28;20063;-79
2023/03/21 14:38:37;;;;;;;6.03;2.60;;;;;;;;;;5047725;28;20049;-79
2023/03/21 14:41:04;;;;;;;6.65;2.65;;;;;;;;;;5033734;28;20113;-80
2023/03/21 14:43:34;;;;;;;7.25;2.60;;;;;;;;;;5034797;28;20041;-81
2023/03/21 14:46:00;;;;;;;8.27;3.05;;;;;;;;;;5042246;28;20021;-80
2023/03/21 14:48:31;;;;;;;7.57;2.88;;;;;;;;;;5039928;28;20036;-82
2023/03/21 14:51:01;;;;;;;8.40;3.55;;;;;;;;;;5036266;28;20037;-79
2023/03/21 14:53:27;;;;;;;8.73;3.92;;;;;;;;;;5029720;28;20022;-78
2023/03/21 14:56:02;;;;;;;11.18;3.92;;;;;;;;;;5032519;28;20080;-78
2023/03/21 14:58:28;;;;;;;;;;;;;;;;;;5030269;28;20495;-79
2023/03/21 15:00:56;;;;;;;15.18;4.90;;;;;;;;;;5036252;28;19917;-79
2023/03/21 15:03:26;;;;;;;10.68;2.50;;;;;;;;;;5030115;28;20041;-78
2023/03/21 15:05:52;;;;;;;8.98;3.00;;;;;;;;;;5032002;28;20468;-78
2023/03/21 15:08:19;;;;;;;9.45;4.22;;;;;;;;;;5029558;28;20029;-77
2023/03/21 15:10:55;;;;;;;14.85;3.67;;;;;;;;;;5032990;28;20104;-79
2023/03/21 15:13:22;;;;;;;8.20;3.03;;;;;;;;;;5028948;28;20022;-78
2023/03/21 15:15:49;;;;;;;9.27;3.10;;;;;;;;;;5029597;28;20327;-76
2023/03/21 15:18:17;;;;;;;8.77;5.15;;;;;;;;;;5034092;28;20553;-80
2023/03/21 15:20:46;;;;;;;9.50;2.97;;;;;;;;;;5036443;28;20045;-78